Aérodrome :
LOGIN :

S'inscrire | Disclaimer

   EN    FR    IT 

 










Légende :    VFR   VFR Marginal   IFR   IFR Intensif   IFR Très Intensif
Visi : 
Plafond : 
>= 8 km
>= 3000ft
5 à 8 km
1000 à 3000 ft
1500m à 5 km
500 à 1000 ft
800 à 1500m
200 à 500 ft
< 800m
< 200 ft
Symboles :   Orages  Brouillard  Fortes neiges  Fortes précipitations  Vent > 20 kt
SIGMETs :   Divers  Orages  Givrage  Turbulence  Onde Orograph.  Cendres Volcan.







- Altitude de l'aérodrome : 416 ft
- Code IATA : OVD


LEAS - Asturias

DERNIER METAR :
  • 140812Z 28010KT 250V310 3500 BR -DZ FEW003 SCT008 BKN010 11/11 Q1017 TEMPO 6000 NSW SCT010

METARs EXPIRÉS :
  • 140800Z 28010KT 250V320 1500 R11/1000U BCFG -DZ FEW002 SCT005 BKN007 11/11 Q1017 TEMPO 3000 SCT010
  • 140747Z 28010KT 0800 R29/P2000 R11/1100D BCFG -RA FEW004 SCT006 BKN010 11/11 Q1018 TEMPO 3000 SCT010
  • 140730Z 30008KT 260V340 1500 BR -RA FEW004 SCT006 BKN010 11/11 Q1018 TEMPO 3000 SCT010
  • 140700Z 26005KT 5000 -DZ FEW019 BKN024 BKN030 11/10 Q1018 TEMPO 3000
  • 140630Z 25006KT 5000 -RA SCT019 SCT023 11/10 Q1017 TEMPO 3000
  • 140600Z 25006KT 220V280 4000 -RA FEW008 SCT057 BKN075 11/10 Q1017 TEMPO 6000
  • 140530Z 28010KT 250V310 4000 -RA SCT006 BKN008 BKN027 11/10 Q1018 TEMPO 6000

TAF TAF LEAS
Valide du 14 à 03h jusqu'au 15 à 03h UTC


140200Z 1403/1503 27009KT 9999 FEW010 BKN030 TX16/1414Z TN09/1421Z
TEMPO 1403/1409 3000 RADZ
TEMPO 1403/1409 BKN010
TEMPO 1421/1503 29015G25KT 3000 RA BKN010
Pas de NOTAMs connus pour ce terrain.



MET'MAP, la Météo Aéronautique d'un coup d'oeil ! - Copyright ORBIFLY Décembre 2007 - Disclaimer

ORBIFLY MET'MAP TEAM :

Programmation & Développement : Alexandra Zaïnal
Conception & Développement : Baudouin d'Aumeries
Co-Programmation & Développement : Marc-Olivier Méhu
Soutien technique & logistique : Manuel Goepfert

Contact : metmap@orbifly.com




SOURCES & CREDITS :

   NOAA